BARN25 YWLM-YWLM

Flight info

Callsign BARN25
Flight time 1h 11m
Altitude 48000
Route IFFEY
Aircraft F35/M-SDIM1T/H

Departure

Time 2026-04-26 10:06
Airport Newcastle Airport (YWLM)

Arrival

Time 2026-04-26 11:18
Airport Newcastle Airport (YWLM)
Time Latitude Longitude Altitude Speed Heading
2026-04-26 08:51 -32.78949 151.84023 32 ft 0 kts 235°
2026-04-26 09:14 -32.78950 151.84022 32 ft 2 kts 235°
2026-04-26 09:14 -32.78970 151.84003 33 ft 4 kts 171°
2026-04-26 09:14 -32.79015 151.83969 32 ft 12 kts 237°
2026-04-26 09:15 -32.79062 151.83888 33 ft 12 kts 234°
2026-04-26 09:15 -32.79113 151.83806 32 ft 13 kts 232°
2026-04-26 09:15 -32.79174 151.83728 31 ft 14 kts 218°
2026-04-26 09:15 -32.79248 151.83656 32 ft 14 kts 221°
2026-04-26 09:16 -32.79322 151.83578 30 ft 16 kts 220°
2026-04-26 09:16 -32.79389 151.83506 28 ft 9 kts 252°
2026-04-26 09:16 -32.79352 151.83440 28 ft 13 kts 311°
2026-04-26 09:16 -32.79284 151.83345 30 ft 15 kts 310°
2026-04-26 09:17 -32.79219 151.83256 32 ft 14 kts 311°
2026-04-26 09:17 -32.79132 151.83133 32 ft 27 kts 310°
2026-04-26 09:17 -32.79010 151.82959 32 ft 28 kts 309°
2026-04-26 09:17 -32.78885 151.82784 29 ft 28 kts 308°
2026-04-26 09:18 -32.78765 151.82620 27 ft 17 kts 311°
2026-04-26 09:18 -32.78709 151.82586 28 ft 8 kts 31°
2026-04-26 09:18 -32.78644 151.82642 30 ft 8 kts
2026-04-26 09:18 -32.78625 151.82629 29 ft 0 kts 315°
2026-04-26 09:41 -32.78602 151.82586 30 ft 7 kts 271°
2026-04-26 09:41 -32.78613 151.82566 30 ft 0 kts 221°
2026-04-26 10:04 -32.78614 151.82565 30 ft 1 kts 221°
2026-04-26 10:04 -32.78617 151.82560 30 ft 4 kts 229°
2026-04-26 10:05 -32.78597 151.82501 30 ft 11 kts 312°
2026-04-26 10:05 -32.78565 151.82428 30 ft 10 kts 252°
2026-04-26 10:05 -32.78641 151.82345 28 ft 18 kts 220°
2026-04-26 10:05 -32.78682 151.82305 27 ft 4 kts 218°
2026-04-26 10:06 -32.78739 151.82299 26 ft 13 kts 137°
2026-04-26 10:06 -32.79388 151.83189 110 ft 261 kts 130°
2026-04-26 10:06 -32.81097 151.85573 939 ft 490 kts 129°
2026-04-26 10:06 -32.83068 151.88507 1938 ft 402 kts 117°
2026-04-26 10:07 -32.83813 151.92177 2402 ft 528 kts 85°
2026-04-26 10:07 -32.83046 151.95859 5037 ft 413 kts 76°
2026-04-26 10:07 -32.82464 151.99281 8519 ft 390 kts 77°
2026-04-26 10:07 -32.81913 152.02509 11837 ft 399 kts 79°
2026-04-26 10:08 -32.81466 152.05816 14932 ft 418 kts 88°
2026-04-26 10:08 -32.81733 152.09498 17786 ft 470 kts 101°
2026-04-26 10:08 -32.82270 152.13145 20615 ft 454 kts 101°
2026-04-26 10:08 -32.82798 152.16773 23677 ft 493 kts 100°
2026-04-26 10:09 -32.83418 152.20823 25691 ft 486 kts 100°
2026-04-26 10:09 -32.84004 152.24839 27395 ft 514 kts 101°
2026-04-26 10:09 -32.84627 152.29035 28999 ft 521 kts 101°
2026-04-26 10:09 -32.85251 152.33245 30437 ft 531 kts 101°
2026-04-26 10:10 -32.85905 152.37599 31769 ft 539 kts 101°
2026-04-26 10:10 -32.86560 152.42049 32142 ft 550 kts 101°
2026-04-26 10:10 -32.87808 152.51023 32250 ft 547 kts 100°
2026-04-26 10:11 -32.88956 152.59966 32256 ft 543 kts 99°
2026-04-26 10:11 -32.90005 152.68902 32257 ft 548 kts 99°
2026-04-26 10:12 -32.90961 152.77830 32279 ft 542 kts 98°
2026-04-26 10:12 -32.91827 152.86798 32267 ft 544 kts 97°
2026-04-26 10:13 -32.92056 152.95719 31660 ft 553 kts 66°
2026-04-26 10:13 -32.89283 152.98532 28505 ft 513 kts
2026-04-26 10:13 -32.85923 152.97457 24100 ft 528 kts 313°
2026-04-26 10:14 -32.85087 152.93428 21858 ft 475 kts 248°
2026-04-26 10:14 -32.87304 152.90570 22163 ft 504 kts 215°
2026-04-26 10:14 -32.90033 152.88225 22044 ft 487 kts 212°
2026-04-26 10:14 -32.92817 152.86146 21875 ft 445 kts 208°
2026-04-26 10:15 -32.95685 152.84295 21712 ft 470 kts 207°
2026-04-26 10:15 -32.98601 152.82307 21507 ft 498 kts 210°
2026-04-26 10:15 -33.01532 152.80270 21199 ft 475 kts 205°
2026-04-26 10:15 -33.04615 152.78898 21332 ft 482 kts 192°
2026-04-26 10:16 -33.07861 152.78104 21406 ft 476 kts 189°
2026-04-26 10:16 -33.11132 152.77451 21467 ft 473 kts 188°
2026-04-26 10:16 -33.14370 152.76797 21674 ft 478 kts 188°
2026-04-26 10:16 -33.17630 152.76136 21864 ft 477 kts 187°
2026-04-26 10:17 -33.20906 152.75778 21963 ft 480 kts 179°
2026-04-26 10:17 -33.24190 152.75948 22297 ft 476 kts 172°
2026-04-26 10:17 -33.27463 152.76675 22505 ft 475 kts 163°
2026-04-26 10:17 -33.30226 152.78116 22762 ft 423 kts 149°
2026-04-26 10:18 -33.32448 152.79982 22906 ft 374 kts 137°
2026-04-26 10:18 -33.34133 152.82431 22897 ft 366 kts 118°
2026-04-26 10:18 -33.35133 152.85359 22880 ft 383 kts 104°
2026-04-26 10:18 -33.35375 152.88679 22935 ft 442 kts 86°
2026-04-26 10:19 -33.34507 152.92141 23147 ft 431 kts 63°
2026-04-26 10:19 -33.32471 152.95053 23630 ft 444 kts 39°
2026-04-26 10:19 -33.29869 152.96863 23962 ft 406 kts 25°
2026-04-26 10:19 -33.27201 152.97911 23976 ft 413 kts 19°
2026-04-26 10:20 -33.24360 152.98815 24061 ft 428 kts 15°
2026-04-26 10:20 -33.22386 152.99337 24131 ft 450 kts 14°
2026-04-26 10:20 -33.18113 153.00392 24238 ft 482 kts 12°
2026-04-26 10:20 -33.14890 153.01060 24259 ft 462 kts 12°
2026-04-26 10:21 -33.11742 153.01730 24247 ft 453 kts 12°
2026-04-26 10:21 -33.09711 153.02171 24241 ft 444 kts 12°
2026-04-26 10:21 -33.06679 153.02844 24212 ft 443 kts 13°
2026-04-26 10:21 -33.03712 153.03530 24205 ft 422 kts 12°
2026-04-26 10:22 -33.00807 153.04142 24198 ft 418 kts 12°
2026-04-26 10:22 -32.97951 153.04756 24211 ft 400 kts 12°
2026-04-26 10:22 -32.95049 153.05403 24247 ft 428 kts 12°
2026-04-26 10:22 -32.92054 153.06019 24286 ft 460 kts 12°
2026-04-26 10:23 -32.89148 153.06639 24277 ft 406 kts 12°
2026-04-26 10:23 -32.86338 153.07238 24291 ft 413 kts 12°
2026-04-26 10:23 -32.83547 153.07814 24301 ft 389 kts 11°
2026-04-26 10:23 -32.80788 153.08384 24277 ft 410 kts 12°
2026-04-26 10:24 -32.77947 153.08992 24290 ft 420 kts 12°
2026-04-26 10:24 -32.75137 153.09571 24288 ft 405 kts 12°
2026-04-26 10:24 -32.72355 153.10164 24309 ft 400 kts 12°
2026-04-26 10:24 -32.69567 153.10744 24299 ft 410 kts 12°
2026-04-26 10:25 -32.66757 153.11335 24317 ft 408 kts 11°
2026-04-26 10:25 -32.64002 153.11801 24233 ft 395 kts
2026-04-26 10:25 -32.61132 153.11452 24269 ft 426 kts 348°
2026-04-26 10:25 -32.58490 153.10207 24262 ft 401 kts 332°
2026-04-26 10:26 -32.56168 153.08152 24223 ft 434 kts 315°
2026-04-26 10:26 -32.54408 153.05441 24219 ft 412 kts 299°
2026-04-26 10:26 -32.53326 153.02318 24204 ft 418 kts 283°
2026-04-26 10:26 -32.52993 152.98893 24233 ft 412 kts 267°
2026-04-26 10:27 -32.53414 152.95601 24253 ft 413 kts 252°
2026-04-26 10:27 -32.54607 152.92521 24244 ft 399 kts 235°
2026-04-26 10:27 -32.56429 152.89983 24267 ft 418 kts 220°
2026-04-26 10:27 -32.58732 152.88120 24256 ft 400 kts 202°
2026-04-26 10:28 -32.61262 152.87047 24250 ft 389 kts 190°
2026-04-26 10:28 -32.63974 152.86495 24275 ft 406 kts 187°
2026-04-26 10:28 -32.66728 152.85956 24302 ft 406 kts 187°
2026-04-26 10:28 -32.69472 152.85411 24306 ft 401 kts 187°
2026-04-26 10:29 -32.72206 152.84850 24314 ft 402 kts 187°
2026-04-26 10:29 -32.74904 152.84288 24320 ft 381 kts 188°
2026-04-26 10:29 -32.77599 152.83722 24342 ft 401 kts 188°
2026-04-26 10:29 -32.80301 152.83149 24337 ft 391 kts 188°
2026-04-26 10:30 -32.83010 152.82581 24346 ft 390 kts 188°
2026-04-26 10:30 -32.85704 152.82008 24351 ft 385 kts 188°
2026-04-26 10:30 -32.88373 152.81449 24344 ft 399 kts 190°
2026-04-26 10:30 -32.91108 152.80825 24262 ft 403 kts 188°
2026-04-26 10:31 -32.93813 152.80253 24256 ft 408 kts 188°
2026-04-26 10:31 -32.96529 152.79680 24263 ft 414 kts 188°
2026-04-26 10:31 -32.99276 152.79102 24265 ft 386 kts 188°
2026-04-26 10:31 -33.01946 152.78535 24255 ft 403 kts 188°
2026-04-26 10:32 -33.04677 152.77959 24264 ft 397 kts 188°
2026-04-26 10:32 -33.07347 152.77394 24285 ft 396 kts 188°
2026-04-26 10:32 -33.10064 152.76822 24241 ft 396 kts 188°
2026-04-26 10:32 -33.12774 152.76247 24267 ft 400 kts 188°
2026-04-26 10:33 -33.15501 152.75670 24262 ft 398 kts 188°
2026-04-26 10:33 -33.18183 152.75104 24265 ft 393 kts 188°
2026-04-26 10:33 -33.20878 152.74536 24264 ft 378 kts 188°
2026-04-26 10:33 -33.23621 152.73957 24267 ft 392 kts 188°
2026-04-26 10:34 -33.26278 152.73394 24293 ft 387 kts 188°
2026-04-26 10:34 -33.29001 152.73008 24276 ft 397 kts 178°
2026-04-26 10:34 -33.31720 152.73362 24277 ft 392 kts 165°
2026-04-26 10:34 -33.34224 152.74439 24275 ft 383 kts 152°
2026-04-26 10:35 -33.36424 152.76246 24234 ft 369 kts 137°
2026-04-26 10:35 -33.38100 152.78328 24209 ft 327 kts 131°
2026-04-26 10:35 -33.39419 152.80670 24465 ft 371 kts 110°
2026-04-26 10:35 -33.40016 152.83996 24353 ft 441 kts 97°
2026-04-26 10:36 -33.39882 152.87329 24296 ft 386 kts 80°
2026-04-26 10:36 -33.39146 152.90482 24294 ft 407 kts 68°
2026-04-26 10:36 -33.37561 152.93358 24371 ft 423 kts 53°
2026-04-26 10:36 -33.36319 152.96377 25197 ft 380 kts 121°
2026-04-26 10:37 -33.38429 152.96694 24506 ft 390 kts 204°
2026-04-26 10:37 -33.40960 152.94996 25322 ft 434 kts 224°
2026-04-26 10:37 -33.42607 152.91829 25822 ft 472 kts 251°
2026-04-26 10:37 -33.42987 152.87913 27563 ft 496 kts 272°
2026-04-26 10:38 -33.42159 152.83654 27770 ft 561 kts 295°
2026-04-26 10:38 -33.39864 152.79864 27022 ft 567 kts 321°
2026-04-26 10:38 -33.36500 152.77416 26531 ft 570 kts 346°
2026-04-26 10:38 -33.32643 152.77213 27693 ft 555 kts 13°
2026-04-26 10:39 -33.28786 152.77972 28580 ft 559 kts 12°
2026-04-26 10:39 -33.24999 152.78765 29582 ft 561 kts 11°
2026-04-26 10:39 -33.21163 152.79560 30595 ft 553 kts 11°
2026-04-26 10:39 -33.17382 152.80324 31533 ft 551 kts 11°
2026-04-26 10:40 -33.13640 152.81089 32504 ft 543 kts 11°
2026-04-26 10:40 -33.09869 152.81867 33533 ft 555 kts 11°
2026-04-26 10:40 -33.06122 152.82639 34560 ft 540 kts 10°
2026-04-26 10:40 -33.02392 152.83403 35553 ft 546 kts 10°
2026-04-26 10:41 -32.98679 152.84158 36594 ft 536 kts 10°
2026-04-26 10:41 -32.94999 152.84909 37631 ft 539 kts 10°
2026-04-26 10:41 -32.91278 152.85640 38107 ft 548 kts
2026-04-26 10:41 -32.87484 152.86200 38154 ft 553 kts 357°
2026-04-26 10:42 -32.83713 152.85190 35844 ft 564 kts 330°
2026-04-26 10:42 -32.80604 152.82377 32194 ft 574 kts 306°
2026-04-26 10:42 -32.78510 152.78354 30523 ft 585 kts 298°
2026-04-26 10:42 -32.76614 152.74038 28606 ft 592 kts 295°
2026-04-26 10:43 -32.74888 152.69570 26936 ft 598 kts 293°
2026-04-26 10:43 -32.73395 152.65084 25945 ft 553 kts 289°
2026-04-26 10:43 -32.72158 152.61002 25500 ft 501 kts 289°
2026-04-26 10:43 -32.71026 152.57273 25064 ft 458 kts 289°
2026-04-26 10:44 -32.69992 152.53870 24623 ft 421 kts 290°
2026-04-26 10:44 -32.68204 152.52702 23556 ft 274 kts 42°
2026-04-26 10:44 -32.66464 152.54162 22245 ft 344 kts 39°
2026-04-26 10:44 -32.64388 152.56152 20789 ft 424 kts 42°
2026-04-26 10:45 -32.61986 152.58586 20084 ft 478 kts 37°
2026-04-26 10:45 -32.58813 152.59633 20110 ft 471 kts
2026-04-26 10:45 -32.55988 152.60731 20230 ft 414 kts 30°
2026-04-26 10:45 -32.53402 152.62301 20394 ft 422 kts 28°
2026-04-26 10:46 -32.50752 152.63860 20594 ft 429 kts 28°
2026-04-26 10:46 -32.48058 152.65448 20724 ft 435 kts 28°
2026-04-26 10:46 -32.45325 152.67018 20828 ft 439 kts 25°
2026-04-26 10:46 -32.42487 152.68409 20908 ft 444 kts 24°
2026-04-26 10:47 -32.39616 152.69806 20997 ft 448 kts 24°
2026-04-26 10:47 -32.36725 152.71218 21092 ft 452 kts 24°
2026-04-26 10:47 -32.33804 152.72651 21187 ft 455 kts 24°
2026-04-26 10:47 -32.30872 152.74095 21289 ft 459 kts 24°
2026-04-26 10:48 -32.27687 152.75676 21455 ft 566 kts 24°
2026-04-26 10:48 -32.23787 152.77636 21586 ft 628 kts 24°
2026-04-26 10:48 -32.19734 152.79674 21852 ft 640 kts 24°
2026-04-26 10:48 -32.15598 152.81756 22542 ft 638 kts 24°
2026-04-26 10:49 -32.11443 152.83820 22742 ft 663 kts 24°
2026-04-26 10:49 -32.07139 152.85925 21978 ft 674 kts 23°
2026-04-26 10:49 -32.02835 152.87992 21218 ft 680 kts 23°
2026-04-26 10:49 -31.98421 152.90072 20465 ft 685 kts 22°
2026-04-26 10:50 -31.93705 152.92258 19696 ft 773 kts 22°
2026-04-26 10:50 -31.90166 152.93882 19244 ft 843 kts 21°
2026-04-26 10:50 -31.82694 152.97299 18195 ft 878 kts 22°
2026-04-26 10:50 -31.77028 153.00014 17474 ft 878 kts 23°
2026-04-26 10:51 -31.71386 153.02779 16730 ft 878 kts 23°
2026-04-26 10:51 -31.60145 153.08355 15310 ft 875 kts 23°
2026-04-26 10:51 -31.54555 153.11130 14604 ft 872 kts 24°
2026-04-26 10:52 -31.48966 153.13898 13893 ft 866 kts 24°
2026-04-26 10:52 -31.44025 153.16610 15108 ft 675 kts 29°
2026-04-26 10:52 -31.41331 153.19696 18027 ft 454 kts 64°
2026-04-26 10:52 -31.39244 153.21943 19661 ft 432 kts 24°
2026-04-26 10:53 -31.36240 153.23303 19960 ft 493 kts 21°
2026-04-26 10:53 -31.32802 153.24728 20040 ft 554 kts 20°
2026-04-26 10:53 -31.29019 153.26124 20075 ft 580 kts 14°
2026-04-26 10:54 -31.20935 153.27053 19858 ft 587 kts
2026-04-26 10:54 -31.16846 153.26870 19670 ft 589 kts 356°
2026-04-26 10:54 -31.12764 153.26336 19419 ft 590 kts 353°
2026-04-26 10:54 -31.08699 153.25670 19171 ft 590 kts 353°
2026-04-26 10:55 -31.04627 153.24995 18940 ft 590 kts 353°
2026-04-26 10:55 -31.00561 153.24290 18722 ft 591 kts 352°
2026-04-26 10:55 -30.96497 153.23577 18487 ft 591 kts 352°
2026-04-26 10:55 -30.93803 153.23090 18310 ft 592 kts 352°
2026-04-26 10:56 -30.88338 153.22070 17073 ft 599 kts 351°
2026-04-26 10:56 -30.84225 153.21162 15516 ft 605 kts 350°
2026-04-26 10:56 -30.80101 153.20073 13710 ft 610 kts 344°
2026-04-26 10:56 -30.76135 153.18285 10611 ft 612 kts 338°
2026-04-26 10:57 -30.72341 153.15999 7268 ft 625 kts 326°
2026-04-26 10:57 -30.69160 153.12495 5156 ft 653 kts 296°
2026-04-26 10:57 -30.68603 153.07315 3541 ft 668 kts 253°
2026-04-26 10:57 -30.71185 153.02858 2208 ft 693 kts 215°
2026-04-26 10:58 -30.75670 153.01063 1699 ft 699 kts 183°
2026-04-26 10:58 -30.80470 153.01938 1781 ft 694 kts 159°
2026-04-26 10:58 -30.84833 153.04151 1578 ft 696 kts 145°
2026-04-26 10:58 -30.88322 153.08081 550 ft 649 kts 157°
2026-04-26 10:59 -30.92392 153.09126 1059 ft 590 kts 187°
2026-04-26 10:59 -30.96242 153.07258 1432 ft 623 kts 198°
2026-04-26 10:59 -31.00597 153.06854 1110 ft 644 kts 175°
2026-04-26 10:59 -31.05111 153.06978 1070 ft 649 kts 195°
2026-04-26 11:00 -31.09038 153.04397 1208 ft 657 kts 214°
2026-04-26 11:00 -31.12922 153.01585 1039 ft 659 kts 208°
2026-04-26 11:00 -31.17087 152.99359 846 ft 659 kts 200°
2026-04-26 11:00 -31.21446 152.97727 794 ft 657 kts 193°
2026-04-26 11:01 -31.25986 152.97200 432 ft 658 kts 176°
2026-04-26 11:01 -31.30534 152.97603 367 ft 653 kts 184°
2026-04-26 11:01 -31.34584 152.95409 671 ft 656 kts 212°
2026-04-26 11:01 -31.38723 152.93318 451 ft 653 kts 182°
2026-04-26 11:02 -31.43266 152.93671 508 ft 654 kts 175°
2026-04-26 11:02 -31.47693 152.93723 643 ft 641 kts 217°
2026-04-26 11:02 -31.50993 152.90078 369 ft 659 kts 219°
2026-04-26 11:02 -31.54440 152.86758 415 ft 632 kts 219°
2026-04-26 11:03 -31.58379 152.84572 517 ft 648 kts 174°
2026-04-26 11:03 -31.62916 152.84868 602 ft 658 kts 177°
2026-04-26 11:03 -31.66356 152.82179 709 ft 647 kts 221°
2026-04-26 11:03 -31.70301 152.79761 485 ft 650 kts 173°
2026-04-26 11:04 -31.74260 152.78934 288 ft 645 kts 222°
2026-04-26 11:04 -31.77861 152.75757 238 ft 659 kts 214°
2026-04-26 11:04 -31.81995 152.73785 369 ft 651 kts 172°
2026-04-26 11:04 -31.85844 152.72270 709 ft 652 kts 227°
2026-04-26 11:05 -31.88737 152.68076 352 ft 662 kts 232°
2026-04-26 11:05 -31.91688 152.64079 340 ft 618 kts 225°
2026-04-26 11:05 -31.94946 152.60886 333 ft 610 kts 213°
2026-04-26 11:05 -31.98577 152.58343 368 ft 607 kts 209°
2026-04-26 11:06 -32.01033 152.56747 423 ft 610 kts 208°
2026-04-26 11:06 -32.04945 152.54927 465 ft 608 kts 182°
2026-04-26 11:06 -32.09840 152.52355 529 ft 608 kts 212°
2026-04-26 11:06 -32.12411 152.51136 530 ft 605 kts 194°
2026-04-26 11:07 -32.16529 152.51117 518 ft 599 kts 148°
2026-04-26 11:07 -32.20227 152.56051 654 ft 605 kts 131°
2026-04-26 11:07 -32.22627 152.56458 875 ft 595 kts 216°
2026-04-26 11:07 -32.26120 152.53643 418 ft 616 kts 203°
2026-04-26 11:08 -32.31515 152.53441 580 ft 607 kts 140°
2026-04-26 11:08 -32.33881 152.54921 511 ft 595 kts 202°
2026-04-26 11:08 -32.37865 152.53192 291 ft 617 kts 201°
2026-04-26 11:08 -32.42909 152.53278 533 ft 599 kts 134°
2026-04-26 11:09 -32.45006 152.52550 1094 ft 574 kts 247°
2026-04-26 11:09 -32.46375 152.47873 802 ft 619 kts 252°
2026-04-26 11:09 -32.47306 152.44565 1426 ft 372 kts 250°
2026-04-26 11:09 -32.48602 152.41324 1624 ft 510 kts 240°
2026-04-26 11:10 -32.50616 152.37211 574 ft 628 kts 239°
2026-04-26 11:10 -32.53430 152.33123 509 ft 654 kts 222°
2026-04-26 11:10 -32.57152 152.29939 318 ft 658 kts 207°
2026-04-26 11:10 -32.60668 152.26762 522 ft 651 kts 236°
2026-04-26 11:11 -32.63581 152.22611 225 ft 655 kts 225°
2026-04-26 11:11 -32.67772 152.21112 348 ft 656 kts 180°
2026-04-26 11:11 -32.72343 152.20698 613 ft 661 kts 189°
2026-04-26 11:11 -32.76689 152.19032 1007 ft 660 kts 213°
2026-04-26 11:12 -32.78932 152.14584 1648 ft 657 kts 268°
2026-04-26 11:12 -32.79681 152.09370 2586 ft 630 kts 237°
2026-04-26 11:12 -32.82106 152.04875 3827 ft 663 kts 244°
2026-04-26 11:12 -32.84118 151.99829 3168 ft 684 kts 246°
2026-04-26 11:13 -32.85013 151.95628 2896 ft 494 kts 278°
2026-04-26 11:13 -32.83994 151.91736 1949 ft 474 kts 295°
2026-04-26 11:13 -32.82516 151.88370 935 ft 442 kts 302°
2026-04-26 11:13 -32.80861 151.85544 405 ft 387 kts 303°
2026-04-26 11:14 -32.79388 151.83405 405 ft 392 kts 313°
2026-04-26 11:14 -32.77239 151.80367 889 ft 543 kts 297°
2026-04-26 11:14 -32.78457 151.77240 2369 ft 440 kts 162°
2026-04-26 11:14 -32.80720 151.79068 2344 ft 390 kts 130°
2026-04-26 11:15 -32.82485 151.81597 1948 ft 362 kts 127°
2026-04-26 11:15 -32.83808 151.83194 1915 ft 197 kts 134°
2026-04-26 11:15 -32.84569 151.84148 1856 ft 170 kts 113°
2026-04-26 11:15 -32.84615 151.85544 1931 ft 175 kts 64°
2026-04-26 11:16 -32.83772 151.86667 1801 ft 197 kts 33°
2026-04-26 11:16 -32.82486 151.86816 1156 ft 181 kts 342°
2026-04-26 11:16 -32.81509 151.86035 524 ft 159 kts 318°
2026-04-26 11:16 -32.80788 151.85146 142 ft 154 kts 309°
2026-04-26 11:17 -32.80172 151.84273 30 ft 118 kts 310°
2026-04-26 11:17 -32.79743 151.83671 29 ft 75 kts 310°
2026-04-26 11:17 -32.79429 151.83233 27 ft 64 kts 310°
2026-04-26 11:17 -32.79191 151.82901 31 ft 57 kts 310°
2026-04-26 11:18 -32.78968 151.82588 29 ft 35 kts 310°
2026-04-26 11:18 -32.78844 151.82537 28 ft 14 kts 39°
2026-04-26 11:18 -32.78794 151.82633 27 ft 12 kts 98°
2026-04-26 11:18 -32.78851 151.82728 29 ft 21 kts 130°
2026-04-26 11:19 -32.78951 151.82867 29 ft 22 kts 130°
2026-04-26 11:19 -32.79044 151.82997 33 ft 21 kts 130°
2026-04-26 11:19 -32.79142 151.83133 32 ft 23 kts 130°
2026-04-26 11:19 -32.79246 151.83276 32 ft 20 kts 131°
2026-04-26 11:20 -32.79345 151.83417 28 ft 23 kts 120°
2026-04-26 11:20 -32.79323 151.83502 29 ft 16 kts 41°
2026-04-26 11:20 -32.79202 151.83622 32 ft 15 kts 40°
2026-04-26 11:20 -32.79124 151.83702 32 ft 15 kts 40°
2026-04-26 11:21 -32.79050 151.83710 32 ft 9 kts 325°
2026-04-26 11:21 -32.79002 151.83712 32 ft 8 kts 45°
2026-04-26 11:21 -32.79003 151.83758 32 ft 7 kts 143°
2026-04-26 11:21 -32.79046 151.83784 32 ft 7 kts 190°
2026-04-26 11:22 -32.79067 151.83761 32 ft 0 kts 234°
2026-04-26 11:22 -32.79068 151.83760 32 ft 0 kts 233°